^^
Station Historical Data
Daily Summary for April 21, 2017 Units:  Metric    English   Both
« Previous Day
Next Day »
Daily Weekly Monthly Yearly Custom
  High: Low: Average:
Temperature: 8.1 °C 4.6 °C 6.4 °C
Dew Point: 5.2 °C 2.1 °C 3.5 °C
Humidity: 87% 67% 82%
Wind Speed: 38.9km/h 0km/h 16.4km/h
Wind Gust: 38.9km/h - -
Wind- - SE
Pressure: 1021.6 hPa 1006.7 hPa -
Precipitation: 12.19 mm    
Historical Graphs
 
 
Tabular Data for April 21, 2017
Time Temperature Dew Point Pressure Wind Wind Speed Wind Gust Humidity Rainfall Rate (Hourly) solar Conditions
00:01 7.4 °C 5.1 °C 1010.4 hPa ESE 20.4 km/h 20.4 km/h 85% 0 mm WeatherDisplay:10.37 W/m2 RA
00:06 7.3 °C 4.8 °C 1009.4 hPa East 22.2 km/h 22.2 km/h 84% 0 mm WeatherDisplay:10.37 W/m2 RA
00:11 7.3 °C 4.8 °C 1009.4 hPa East 22.5 km/h 22.5 km/h 84% 0 mm WeatherDisplay:10.37 W/m2 CLR
00:16 7.3 °C 4.9 °C 1009.4 hPa SE 16.7 km/h 16.7 km/h 85% 0 mm WeatherDisplay:10.37 W/m2 CLR
00:21 7.3 °C 5 °C 1009.4 hPa ESE 18.5 km/h 18.5 km/h 85% 0 mm WeatherDisplay:10.37 W/m2 CLR
00:22 7.3 °C 5 °C 1009.4 hPa ESE 18.5 km/h 18.5 km/h 85% 0 mm WeatherDisplay:10.37 W/m2 CLR
00:27 7.3 °C 5 °C 1009.7 hPa SE 20.9 km/h 20.9 km/h 85% 0 mm WeatherDisplay:10.37 W/m2 CLR
00:32 7.3 °C 5 °C 1009.7 hPa ESE 19.3 km/h 19.3 km/h 85% 0 mm WeatherDisplay:10.37 W/m2 CLR
00:37 7.3 °C 4.9 °C 1009.7 hPa East 16.7 km/h 16.7 km/h 85% 0 mm WeatherDisplay:10.37 W/m2 CLR
00:42 7.3 °C 5 °C 1009.4 hPa ESE 18.5 km/h 18.5 km/h 85% 0 mm WeatherDisplay:10.37 W/m2 CLR
00:47 7.3 °C 5 °C 1009.4 hPa East 25.9 km/h 25.9 km/h 85% 0 mm WeatherDisplay:10.37 W/m2 CLR
00:52 7.4 °C 5.1 °C 1009.4 hPa ESE 22.2 km/h 22.2 km/h 85% 0 mm WeatherDisplay:10.37 W/m2 CLR
00:57 7.4 °C 5.1 °C 1009 hPa East 19.3 km/h 19.3 km/h 85% 0 mm WeatherDisplay:10.37 W/m2 CLR
01:02 7.4 °C 5.2 °C 1009 hPa ENE 22.5 km/h 22.5 km/h 86% 0 mm WeatherDisplay:10.37 W/m2 CLR
01:07 7.4 °C 5.1 °C 1008.7 hPa ESE 22.2 km/h 22.2 km/h 85% 0 mm WeatherDisplay:10.37 W/m2 CLR
01:12 7.4 °C 5.2 °C 1008.7 hPa ESE 18.5 km/h 18.5 km/h 86% 0 mm WeatherDisplay:10.37 W/m2 CLR
01:17 7.4 °C 5.2 °C 1008.7 hPa ESE 18.5 km/h 18.5 km/h 86% 0 mm WeatherDisplay:10.37 W/m2 CLR
01:22 7.3 °C 5.2 °C 1008.7 hPa East 22.2 km/h 22.2 km/h 86% 0 mm WeatherDisplay:10.37 W/m2 CLR
01:27 7.4 °C 5.2 °C 1008.7 hPa ESE 18.5 km/h 18.5 km/h 86% 0 mm WeatherDisplay:10.37 W/m2 CLR
01:32 7.4 °C 5.2 °C 1008.4 hPa East 16.7 km/h 16.7 km/h 86% 0 mm WeatherDisplay:10.37 W/m2 CLR
01:37 7.4 °C 5.1 °C 1008.4 hPa East 18.5 km/h 18.5 km/h 85% 0 mm WeatherDisplay:10.37 W/m2 CLR
01:42 7.4 °C 5.1 °C 1008.4 hPa ESE 22.2 km/h 22.2 km/h 85% 0 mm WeatherDisplay:10.37 W/m2 CLR
01:47 7.5 °C 5.2 °C 1008 hPa ESE 22.5 km/h 22.5 km/h 85% 0 mm WeatherDisplay:10.37 W/m2 CLR
01:52 7.6 °C 5 °C 1008 hPa ESE 27.8 km/h 27.8 km/h 84% 0 mm WeatherDisplay:10.37 W/m2 CLR
01:57 7.6 °C 5 °C 1007.7 hPa ESE 31.5 km/h 31.5 km/h 84% 0 mm WeatherDisplay:10.37 W/m2 CLR
02:02 7.6 °C 5 °C 1007.3 hPa SE 25.9 km/h 25.9 km/h 84% 0 mm WeatherDisplay:10.37 W/m2 CLR
02:07 7.6 °C 5 °C 1007.3 hPa SE 25.7 km/h 25.7 km/h 84% 0 mm WeatherDisplay:10.37 W/m2 CLR
02:12 7.6 °C 4.8 °C 1007.3 hPa ESE 33.3 km/h 33.3 km/h 83% 0 mm WeatherDisplay:10.37 W/m2 CLR
02:17 7.6 °C 4.8 °C 1007 hPa ESE 29.6 km/h 29.6 km/h 83% 0 mm WeatherDisplay:10.37 W/m2 CLR
02:22 7.6 °C 4.8 °C 1007 hPa ESE 24.1 km/h 24.1 km/h 83% 0 mm WeatherDisplay:10.37 W/m2 CLR
02:27 7.6 °C 4.7 °C 1007 hPa ESE 29.6 km/h 29.6 km/h 82% 0 mm WeatherDisplay:10.37 W/m2 CLR
02:32 7.6 °C 4.8 °C 1007 hPa SE 20.4 km/h 20.4 km/h 83% 0 mm WeatherDisplay:10.37 W/m2 CLR
02:37 7.5 °C 4.9 °C 1006.7 hPa SSE 24.1 km/h 24.1 km/h 84% 0 mm WeatherDisplay:10.37 W/m2 CLR
02:42 7.5 °C 4.9 °C 1006.7 hPa ESE 24.1 km/h 24.1 km/h 84% 0 mm WeatherDisplay:10.37 W/m2 CLR
02:47 7.4 °C 4.9 °C 1006.7 hPa ESE 22.2 km/h 22.2 km/h 84% 0 mm WeatherDisplay:10.37 W/m2 CLR
02:52 7.4 °C 4.9 °C 1006.7 hPa SE 22.2 km/h 22.2 km/h 84% 0 mm WeatherDisplay:10.37 W/m2 CLR
02:57 7.4 °C 4.5 °C 1006.7 hPa ESE 24.1 km/h 24.1 km/h 82% 0 mm WeatherDisplay:10.37 W/m2 CLR
03:02 7.3 °C 4.2 °C 1007.7 hPa SE 24.1 km/h 24.1 km/h 81% 0 mm WeatherDisplay:10.37 W/m2 CLR
03:07 7.2 °C 4.3 °C 1007.7 hPa ESE 18.5 km/h 18.5 km/h 82% 0 mm WeatherDisplay:10.37 W/m2 CLR
03:12 7.2 °C 4.3 °C 1007.7 hPa ESE 27.8 km/h 27.8 km/h 82% 0 mm WeatherDisplay:10.37 W/m2 CLR
03:17 7.2 °C 4.3 °C 1007.7 hPa SE 22.2 km/h 22.2 km/h 82% 0 mm WeatherDisplay:10.37 W/m2 CLR
03:22 7.1 °C 4.6 °C 1007.7 hPa East 19.3 km/h 19.3 km/h 84% 0 mm WeatherDisplay:10.37 W/m2 CLR
03:27 7.1 °C 4.8 °C 1007.7 hPa SE 18.5 km/h 18.5 km/h 85% 0.25 mm WeatherDisplay:10.37 W/m2 RA
03:32 7.1 °C 4.9 °C 1007.7 hPa East 20.4 km/h 20.4 km/h 86% 0.51 mm WeatherDisplay:10.37 W/m2 RA
03:37 7 °C 4.7 °C 1007.7 hPa ESE 25.9 km/h 25.9 km/h 85% 1.02 mm WeatherDisplay:10.37 W/m2 RA
03:42 7 °C 4.8 °C 1007.7 hPa SE 13 km/h 13 km/h 86% 1.52 mm WeatherDisplay:10.37 W/m2 RA
03:47 6.9 °C 4.8 °C 1007.7 hPa ESE 14.8 km/h 14.8 km/h 86% 2.03 mm WeatherDisplay:10.37 W/m2 RA
03:52 6.9 °C 4.9 °C 1007.3 hPa ESE 18.5 km/h 18.5 km/h 87% 3.05 mm WeatherDisplay:10.37 W/m2 RA
03:57 6.9 °C 4.9 °C 1007.3 hPa ESE 18.5 km/h 18.5 km/h 87% 3.56 mm WeatherDisplay:10.37 W/m2 RA
04:02 6.8 °C 4.5 °C 1007.7 hPa ESE 35.2 km/h 35.2 km/h 85% 4.06 mm WeatherDisplay:10.37 W/m2 RA
04:07 6.8 °C 4.7 °C 1007.3 hPa ESE 31.5 km/h 31.5 km/h 86% 4.57 mm WeatherDisplay:10.37 W/m2 RA
04:12 6.8 °C 4.6 °C 1007.3 hPa SE 25.9 km/h 25.9 km/h 86% 4.83 mm WeatherDisplay:10.37 W/m2 RA
04:17 6.8 °C 4.6 °C 1007.3 hPa SE 22.2 km/h 22.2 km/h 86% 5.08 mm WeatherDisplay:10.37 W/m2 RA
04:22 6.8 °C 4.8 °C 1007.3 hPa ESE 18.5 km/h 18.5 km/h 87% 5.33 mm WeatherDisplay:10.37 W/m2 RA
04:27 6.8 °C 4.6 °C 1007 hPa SE 25.9 km/h 25.9 km/h 86% 5.59 mm WeatherDisplay:10.37 W/m2 RA
04:32 6.7 °C 4.4 °C 1007 hPa SE 27.8 km/h 27.8 km/h 85% 5.84 mm WeatherDisplay:10.37 W/m2 RA
04:37 6.7 °C 4.4 °C 1007 hPa ESE 27.8 km/h 27.8 km/h 85% 5.84 mm WeatherDisplay:10.37 W/m2 RA
04:42 6.7 °C 4.2 °C 1007 hPa ESE 20.4 km/h 20.4 km/h 84% 5.59 mm WeatherDisplay:10.37 W/m2 RA
04:47 6.6 °C 4.1 °C 1007 hPa East 24.1 km/h 24.1 km/h 84% 5.33 mm WeatherDisplay:10.37 W/m2 RA
04:52 6.6 °C 4.3 °C 1007 hPa ESE 18.5 km/h 18.5 km/h 85% 4.57 mm WeatherDisplay:10.37 W/m2 RA
04:57 6.6 °C 4.2 °C 1007 hPa ESE 16.7 km/h 16.7 km/h 85% 4.32 mm WeatherDisplay:10.37 W/m2 RA
05:02 6.6 °C 4.4 °C 1007.3 hPa ESE 14.8 km/h 14.8 km/h 86% 4.06 mm WeatherDisplay:10.37 W/m2 RA
05:07 6.6 °C 4.4 °C 1007.7 hPa SE 16.7 km/h 16.7 km/h 86% 3.81 mm WeatherDisplay:10.37 W/m2 RA
05:12 6.6 °C 4.4 °C 1007.3 hPa ESE 9.3 km/h 10.1 km/h 86% 3.81 mm WeatherDisplay:10.37 W/m2 RA
05:17 6.6 °C 4.4 °C 1007.3 hPa SE 18.5 km/h 18.5 km/h 86% 3.56 mm WeatherDisplay:10.37 W/m2 RA
05:22 6.5 °C 4.3 °C 1007.3 hPa ESE 18.5 km/h 18.5 km/h 86% 3.56 mm WeatherDisplay:10.37 W/m2 RA
05:27 6.5 °C 4.3 °C 1007.3 hPa SE 18.5 km/h 18.5 km/h 86% 3.3 mm WeatherDisplay:10.37 W/m2 RA
05:32 6.5 °C 4.5 °C 1007.3 hPa SE 11.3 km/h 11.3 km/h 87% 2.79 mm WeatherDisplay:10.37 W/m2 RA
05:37 6.4 °C 4.4 °C 1007.3 hPa East 14.8 km/h 14.8 km/h 87% 2.54 mm WeatherDisplay:10.37 W/m2 RA
05:42 6.4 °C 4.4 °C 1007.3 hPa SE 16.7 km/h 16.7 km/h 87% 2.29 mm WeatherDisplay:10.37 W/m2 RA
05:47 6.4 °C 4.4 °C 1007.3 hPa ESE 16.7 km/h 16.7 km/h 87% 2.03 mm WeatherDisplay:10.37 W/m2 CLR
05:52 6.4 °C 4.4 °C 1007.7 hPa East 11.3 km/h 11.3 km/h 87% 1.78 mm WeatherDisplay:10.37 W/m2 CLR
05:57 6.4 °C 4.4 °C 1007.3 hPa ESE 16.7 km/h 16.7 km/h 87% 1.52 mm WeatherDisplay:10.37 W/m2 CLR
06:02 6.4 °C 4.4 °C 1007.7 hPa SE 16.7 km/h 16.7 km/h 87% 1.27 mm WeatherDisplay:10.37 W/m2 CLR
06:07 6.4 °C 4.4 °C 1007.7 hPa SE 18.5 km/h 18.5 km/h 87% 1.02 mm WeatherDisplay:10.37 W/m2 CLR
06:12 6.4 °C 4.4 °C 1007.7 hPa SE 18.5 km/h 18.5 km/h 87% 0.76 mm WeatherDisplay:10.37 W/m2 CLR
06:17 6.5 °C 4.5 °C 1007.7 hPa SE 11.1 km/h 11.1 km/h 87% 0.76 mm WeatherDisplay:10.37 W/m2 CLR
06:22 6.5 °C 4.3 °C 1007.7 hPa SE 18.5 km/h 18.5 km/h 86% 0.25 mm WeatherDisplay:10.37 W/m2 CLR
06:27 6.6 °C 4.4 °C 1008 hPa SSE 14.8 km/h 14.8 km/h 86% 0.25 mm WeatherDisplay:10.37 W/m2 CLR
06:32 6.6 °C 4.2 °C 1007.7 hPa SE 18.5 km/h 18.5 km/h 85% 0 mm WeatherDisplay:10.37 W/m2 CLR
06:37 6.6 °C 4.4 °C 1007.7 hPa SE 18.5 km/h 18.5 km/h 86% 0 mm WeatherDisplay:10.37 W/m2 CLR
06:42 6.6 °C 4.2 °C 1007.7 hPa SE 22.2 km/h 22.2 km/h 85% 0 mm WeatherDisplay:10.37 W/m2 CLR
06:47 6.6 °C 4.3 °C 1008 hPa SSE 20.4 km/h 20.4 km/h 85% 0 mm WeatherDisplay:10.37 W/m2 CLR
06:52 6.6 °C 4.3 °C 1007.7 hPa SSE 18.5 km/h 18.5 km/h 85% 0 mm WeatherDisplay:10.37 W/m2 CLR
06:58 6.6 °C 4.3 °C 1007.7 hPa SE 24.1 km/h 24.1 km/h 85% 0 mm WeatherDisplay:10.37 W/m2 CLR
07:03 6.6 °C 4.4 °C 1009 hPa SE 18.5 km/h 18.5 km/h 86% 0 mm WeatherDisplay:10.37 W/m2 CLR
07:08 6.6 °C 4.3 °C 1009.7 hPa NNW 3.7 km/h 3.7 km/h 85% 0 mm WeatherDisplay:10.37 W/m2 CLR
07:13 6.7 °C 4.3 °C 1009.7 hPa West 7.4 km/h 7.4 km/h 85% 0 mm WeatherDisplay:10.37 W/m2 CLR
07:18 6.7 °C 4.2 °C 1009.7 hPa West 3.7 km/h 3.7 km/h 84% 0 mm WeatherDisplay:10.37 W/m2 CLR
07:23 6.8 °C 4.3 °C 1009.7 hPa Calm     84% 0 mm WeatherDisplay:10.37 W/m2 CLR
07:28 6.8 °C 4.3 °C 1009.7 hPa Calm     84% 0 mm WeatherDisplay:10.37 W/m2 CLR
07:33 6.8 °C 4.5 °C 1009.7 hPa North 3.2 km/h 3.2 km/h 85% 0 mm WeatherDisplay:10.37 W/m2 CLR
07:38 6.9 °C 4.4 °C 1010 hPa NNW 7.4 km/h 7.4 km/h 84% 0.25 mm WeatherDisplay:10.37 W/m2 RA
07:43 6.9 °C 4.4 °C 1009.7 hPa NNW 5.6 km/h 5.6 km/h 84% 0.25 mm WeatherDisplay:10.37 W/m2 RA
07:48 7.1 °C 4.6 °C 1009.7 hPa Calm     84% 0.25 mm WeatherDisplay:10.37 W/m2
07:53 7.1 °C 4.8 °C 1009.7 hPa NW 5.6 km/h 5.6 km/h 85% 0.25 mm WeatherDisplay:10.37 W/m2 CLR
07:58 7.2 °C 5 °C 1010 hPa NW 1.9 km/h 1.9 km/h 86% 0.25 mm WeatherDisplay:10.37 W/m2 CLR
08:03 7.2 °C 5.2 °C 1010 hPa Calm     87% 0.25 mm WeatherDisplay:10.37 W/m2 CLR
08:08 7.2 °C 5.2 °C 1010 hPa NW 1.9 km/h 1.9 km/h 87% 0.25 mm WeatherDisplay:10.37 W/m2 CLR
08:13 7.2 °C 5.1 °C 1009.7 hPa Calm     86% 0.25 mm WeatherDisplay:10.37 W/m2 CLR
08:18 7.3 °C 5.1 °C 1010 hPa NW 1.9 km/h   86% 0.25 mm WeatherDisplay:10.37 W/m2 CLR
08:23 7.2 °C 5.1 °C 1009.7 hPa NNW 3.2 km/h 3.2 km/h 86% 0.25 mm WeatherDisplay:10.37 W/m2 CLR
08:28 7.3 °C 4.9 °C 1009.7 hPa NNW 9.3 km/h 9.3 km/h 85% 0.25 mm WeatherDisplay:10.37 W/m2 CLR
08:33 7.4 °C 5.1 °C 1009.7 hPa NNW 3.7 km/h   85% 0.25 mm WeatherDisplay:10.37 W/m2 CLR
08:38 7.4 °C 3.7 °C 1010 hPa NNE 18.5 km/h 18.5 km/h 77% 0 mm WeatherDisplay:10.37 W/m2 CLR
08:43 7.4 °C 3.8 °C 1010 hPa North 9.7 km/h 9.7 km/h 78% 0 mm WeatherDisplay:10.37 W/m2 CLR
08:48 7.4 °C 4.4 °C 1010 hPa West 1.9 km/h 1.9 km/h 81% 0 mm WeatherDisplay:10.37 W/m2 CLR
08:53 7.5 °C 4.1 °C 1009.7 hPa NNW 5.6 km/h 5.6 km/h 79% 0 mm WeatherDisplay:10.37 W/m2 CLR
08:58 7.5 °C 4.1 °C 1010 hPa NNW 5.6 km/h 5.6 km/h 79% 0 mm WeatherDisplay:10.37 W/m2 CLR
09:03 7.4 °C 3.6 °C 1010 hPa WSW 11.1 km/h 11.1 km/h 77% 0 mm WeatherDisplay:10.37 W/m2 CLR
09:08 7.3 °C 3.5 °C 1010 hPa SE 7.4 km/h 7.4 km/h 77% 0 mm WeatherDisplay:10.37 W/m2 CLR
09:13 7.2 °C 3.3 °C 1010 hPa NNW 27.8 km/h 27.8 km/h 76% 0 mm WeatherDisplay:10.37 W/m2 CLR
09:18 7.2 °C 3.2 °C 1010 hPa North 31.5 km/h 31.5 km/h 76% 0 mm WeatherDisplay:10.37 W/m2 CLR
09:23 6.6 °C 2.9 °C 1010.7 hPa SW 20.4 km/h 20.4 km/h 77% 0 mm WeatherDisplay:10.37 W/m2 CLR
09:28 6.4 °C 2.8 °C 1011.1 hPa NE 27.8 km/h 27.8 km/h 78% 0 mm WeatherDisplay:10.37 W/m2 CLR
09:33 6.4 °C 3 °C 1010.7 hPa North 27.8 km/h 27.8 km/h 79% 0 mm WeatherDisplay:10.37 W/m2 CLR
09:34 6.4 °C 3 °C 1011.1 hPa NW 25.9 km/h 25.9 km/h 79% 0 mm WeatherDisplay:10.37 W/m2 CLR
09:39 6.3 °C 2.9 °C 1011.1 hPa NE 35.2 km/h 35.2 km/h 79% 0 mm WeatherDisplay:10.37 W/m2 CLR
09:44 6.3 °C 3.1 °C 1011.1 hPa North 14.5 km/h 14.5 km/h 80% 0 mm WeatherDisplay:10.37 W/m2 CLR
09:49 6.3 °C 2.9 °C 1011.1 hPa NNW 25.9 km/h 25.9 km/h 79% 0 mm WeatherDisplay:10.37 W/m2 CLR
09:54 6.3 °C 2.8 °C 1011.4 hPa NNE 22.2 km/h 22.2 km/h 78% 0 mm WeatherDisplay:10.37 W/m2 CLR
09:59 6.4 °C 2.8 °C 1011.4 hPa North 27.8 km/h 27.8 km/h 78% 0 mm WeatherDisplay:10.37 W/m2 CLR
10:04 6.4 °C 3.2 °C 1011.7 hPa North 20.4 km/h 20.4 km/h 80% 0 mm WeatherDisplay:10.37 W/m2 CLR
10:09 6.4 °C 3.4 °C 1011.7 hPa North 29.6 km/h 29.6 km/h 81% 0 mm WeatherDisplay:10.37 W/m2 CLR
10:14 6.3 °C 2.9 °C 1012.4 hPa North 38.9 km/h 38.9 km/h 79% 0 mm WeatherDisplay:10.37 W/m2 CLR
10:19 6.1 °C 3.1 °C 1012.4 hPa West 27.8 km/h 27.8 km/h 81% 0 mm WeatherDisplay:10.37 W/m2 CLR
10:24 6 °C 3 °C 1012.8 hPa NNW 24.1 km/h 24.1 km/h 81% 0 mm WeatherDisplay:10.37 W/m2 CLR
10:29 5.9 °C 3.1 °C 1012.8 hPa NNE 20.9 km/h 20.9 km/h 82% 0 mm WeatherDisplay:10.37 W/m2 CLR
10:34 5.8 °C 2.8 °C 1012.8 hPa NW 25.9 km/h 25.9 km/h 81% 0 mm WeatherDisplay:10.37 W/m2 CLR
10:39 5.7 °C 2.8 °C 1013.1 hPa NW 31.5 km/h 31.5 km/h 82% 0 mm WeatherDisplay:10.37 W/m2 CLR
10:44 5.7 °C 2.8 °C 1013.1 hPa NNE 14.5 km/h 15.8 km/h 82% 0.25 mm WeatherDisplay:10.37 W/m2 RA
10:49 5.7 °C 3.2 °C 1013.4 hPa North 18.5 km/h 18.5 km/h 84% 0.25 mm WeatherDisplay:10.37 W/m2 RA
10:54 5.7 °C 3.1 °C 1013.4 hPa North 27.8 km/h 27.8 km/h 83% 0.51 mm WeatherDisplay:10.37 W/m2 RA
10:59 5.7 °C 3 °C 1013.4 hPa North 29 km/h 29 km/h 83% 0.51 mm WeatherDisplay:10.37 W/m2 RA
11:04 5.6 °C 2.9 °C 1014.1 hPa NNW 29.6 km/h 29.6 km/h 83% 0.76 mm WeatherDisplay:10.37 W/m2 RA
11:09 5.3 °C 2.6 °C 1014.1 hPa NNW 31.5 km/h 31.5 km/h 83% 1.02 mm WeatherDisplay:10.37 W/m2 RA
11:14 5.2 °C 2.5 °C 1014.4 hPa NNW 31.5 km/h 31.5 km/h 83% 1.02 mm WeatherDisplay:10.37 W/m2 RA
11:19 5.2 °C 2.7 °C 1014.8 hPa North 18.5 km/h 18.5 km/h 84% 1.02 mm WeatherDisplay:10.37 W/m2 CLR
11:24 5.4 °C 2.8 °C 1014.8 hPa North 33.3 km/h 33.3 km/h 83% 1.02 mm WeatherDisplay:10.37 W/m2 CLR
11:29 5.6 °C 2.9 °C 1014.8 hPa NNE 22.2 km/h 22.2 km/h 83% 1.02 mm WeatherDisplay:10.37 W/m2 CLR
11:34 5.7 °C 3.2 °C 1014.8 hPa North 14.8 km/h 14.8 km/h 84% 1.02 mm WeatherDisplay:10.37 W/m2 CLR
11:39 5.7 °C 2.9 °C 1014.8 hPa North 25.9 km/h 25.9 km/h 82% 1.02 mm WeatherDisplay:10.37 W/m2 CLR
11:44 5.7 °C 3.4 °C 1015.1 hPa NNE 14.5 km/h 14.5 km/h 85% 0.76 mm WeatherDisplay:10.37 W/m2 CLR
11:49 5.7 °C 2.8 °C 1015.1 hPa North 20.4 km/h 20.4 km/h 82% 0.76 mm WeatherDisplay:10.37 W/m2 CLR
11:54 5.4 °C 2.8 °C 1015.1 hPa NNE 22.2 km/h 22.2 km/h 83% 0.51 mm WeatherDisplay:10.37 W/m2 CLR
11:59 5.3 °C 2.4 °C 1015.5 hPa North 25.9 km/h 25.9 km/h 82% 0.51 mm WeatherDisplay:10.37 W/m2 CLR
12:04 5.3 °C 2.4 °C 1015.5 hPa NNE 22.2 km/h 22.2 km/h 82% 0.25 mm WeatherDisplay:10.37 W/m2 CLR
12:09 5.2 °C 2.7 °C 1015.5 hPa North 13 km/h 13 km/h 84% 0 mm WeatherDisplay:10.37 W/m2 CLR
12:14 5.3 °C 2.8 °C 1015.5 hPa North 14.8 km/h 14.8 km/h 84% 0.25 mm WeatherDisplay:10.37 W/m2 RA
12:19 5.3 °C 2.8 °C 1015.5 hPa North 16.7 km/h 16.7 km/h 84% 0.25 mm WeatherDisplay:10.37 W/m2 RA
12:24 5.1 °C 2.4 °C 1015.5 hPa NE 18.5 km/h 18.5 km/h 83% 0.51 mm WeatherDisplay:10.37 W/m2 RA
12:29 4.9 °C 2.4 °C 1015.5 hPa North 29 km/h 29 km/h 84% 0.51 mm WeatherDisplay:10.37 W/m2 RA
12:34 4.8 °C 2.4 °C 1015.8 hPa North 18.5 km/h 18.5 km/h 85% 0.51 mm WeatherDisplay:10.37 W/m2
12:39 4.7 °C 2.4 °C 1015.8 hPa NNW 16.7 km/h 16.7 km/h 85% 0.76 mm WeatherDisplay:10.37 W/m2 RA
12:44 4.9 °C 2.9 °C 1015.8 hPa NNE 9.3 km/h 9.3 km/h 87% 0.76 mm WeatherDisplay:10.37 W/m2 RA
12:49 5 °C 2.8 °C 1015.8 hPa NNE 11.3 km/h 11.3 km/h 86% 1.02 mm WeatherDisplay:10.37 W/m2 RA
12:54 5.1 °C 2.9 °C 1015.8 hPa NNE 16.7 km/h 16.7 km/h 86% 1.02 mm WeatherDisplay:10.37 W/m2 RA
12:59 5.2 °C 3.1 °C 1015.5 hPa ENE 11.1 km/h 11.1 km/h 86% 1.02 mm WeatherDisplay:10.37 W/m2 CLR
13:00 5.2 °C 3.1 °C 1015.5 hPa ENE 14.8 km/h 14.8 km/h 86% 1.02 mm WeatherDisplay:10.37 W/m2 CLR
13:05 5.4 °C 3.4 °C 1015.5 hPa NE 13 km/h 13 km/h 87% 1.02 mm WeatherDisplay:10.37 W/m2 CLR
13:10 5.6 °C 3.2 °C 1015.5 hPa NNE 11.1 km/h 11.1 km/h 85% 1.02 mm WeatherDisplay:10.37 W/m2 CLR
13:15 5.7 °C 3.3 °C 1015.5 hPa NE 7.4 km/h 8.2 km/h 85% 0.76 mm WeatherDisplay:10.37 W/m2 CLR
13:20 5.7 °C 3.2 °C 1015.5 hPa NE 22.2 km/h 22.2 km/h 84% 0.76 mm WeatherDisplay:10.37 W/m2 CLR
13:25 5.7 °C 3 °C 1015.5 hPa North 16.7 km/h 16.7 km/h 83% 0.51 mm WeatherDisplay:10.37 W/m2 CLR
13:30 5.8 °C 2.6 °C 1015.5 hPa ENE 20.4 km/h 20.4 km/h 80% 0.51 mm WeatherDisplay:10.37 W/m2 CLR
13:35 6 °C 3.3 °C 1015.5 hPa NE 16.7 km/h 16.7 km/h 83% 0.25 mm WeatherDisplay:10.37 W/m2 CLR
13:40 6.1 °C 2.7 °C 1015.5 hPa North 22.5 km/h 22.5 km/h 79% 0.25 mm WeatherDisplay:10.37 W/m2 CLR
13:45 6.3 °C 3.1 °C 1015.5 hPa NNE 16.7 km/h 16.7 km/h 80% 0.25 mm WeatherDisplay:10.37 W/m2 CLR
13:50 6.3 °C 3.4 °C 1015.8 hPa ENE 22.2 km/h 22.2 km/h 82% 0 mm WeatherDisplay:10.37 W/m2 CLR
13:55 6.2 °C 3.2 °C 1015.8 hPa NE 16.7 km/h 16.7 km/h 81% 0 mm WeatherDisplay:10.37 W/m2 CLR
14:00 6.1 °C 3.3 °C 1015.8 hPa NE 19.3 km/h 19.3 km/h 82% 0 mm WeatherDisplay:10.37 W/m2 CLR
14:05 6.2 °C 3.3 °C 1015.8 hPa NE 16.1 km/h 16.1 km/h 82% 0 mm WeatherDisplay:10.37 W/m2 CLR
14:10 6.3 °C 3.4 °C 1015.8 hPa NNE 11.1 km/h 11.1 km/h 82% 0 mm WeatherDisplay:10.37 W/m2 CLR
14:15 6.4 °C 3.2 °C 1015.8 hPa ENE 18.5 km/h 18.5 km/h 80% 0 mm WeatherDisplay:10.37 W/m2 CLR
14:20 6.8 °C 2.9 °C 1015.8 hPa NE 22.2 km/h 22.2 km/h 76% 0 mm WeatherDisplay:10.37 W/m2 CLR
14:25 7.2 °C 2.9 °C 1015.5 hPa NE 14.8 km/h 14.8 km/h 74% 0 mm WeatherDisplay:10.37 W/m2 CLR
14:30 7.4 °C 3.7 °C 1015.5 hPa ENE 18.5 km/h 18.5 km/h 77% 0 mm WeatherDisplay:10.37 W/m2 CLR
14:35 7.4 °C 3.5 °C 1015.5 hPa NW 16.7 km/h 16.7 km/h 76% 0 mm WeatherDisplay:10.37 W/m2 CLR
14:40 7.5 °C 4.1 °C 1015.5 hPa NE 11.3 km/h 11.3 km/h 79% 0 mm WeatherDisplay:10.37 W/m2 CLR
14:45 7.3 °C 3.6 °C 1015.5 hPa NE 18.5 km/h 18.5 km/h 77% 0.25 mm WeatherDisplay:10.37 W/m2 RA
14:50 7.4 °C 3.2 °C 1015.5 hPa NNE 18.5 km/h 18.5 km/h 75% 0.25 mm WeatherDisplay:10.37 W/m2 RA
14:55 7.5 °C 3.6 °C 1015.5 hPa NE 20.4 km/h 20.4 km/h 76% 0.25 mm WeatherDisplay:10.37 W/m2 CLR
15:00 7.6 °C 3.7 °C 1015.5 hPa NNE 20.4 km/h 20.4 km/h 76% 0.25 mm WeatherDisplay:10.37 W/m2 CLR
15:05 7.6 °C 3.3 °C 1015.5 hPa ENE 19.3 km/h 19.3 km/h 74% 0.25 mm WeatherDisplay:10.37 W/m2 CLR
15:10 7.7 °C 3.1 °C 1015.5 hPa NE 14.8 km/h 14.8 km/h 73% 0.25 mm WeatherDisplay:10.37 W/m2 CLR
15:15 7.7 °C 3 °C 1015.5 hPa NE 18.5 km/h 18.5 km/h 72% 0.25 mm WeatherDisplay:10.37 W/m2 CLR
15:20 7.7 °C 2.6 °C 1015.8 hPa ENE 20.4 km/h 20.4 km/h 70% 0.25 mm WeatherDisplay:10.37 W/m2 CLR
15:25 7.8 °C 2.7 °C 1015.5 hPa ENE 19.3 km/h 19.3 km/h 70% 0.25 mm WeatherDisplay:10.37 W/m2 CLR
15:30 7.7 °C 3 °C 1015.5 hPa NE 16.7 km/h 16.7 km/h 72% 0.25 mm WeatherDisplay:10.37 W/m2 CLR
15:35 7.9 °C 2.8 °C 1015.5 hPa NE 18.5 km/h 18.5 km/h 70% 0.25 mm WeatherDisplay:10.37 W/m2 CLR
15:40 8 °C 2.8 °C 1015.5 hPa ENE 24.1 km/h 24.1 km/h 70% 0.25 mm WeatherDisplay:10.37 W/m2 CLR
15:45 7.9 °C 2.9 °C 1015.5 hPa ENE 18.5 km/h 18.5 km/h 71% 0 mm WeatherDisplay:10.37 W/m2 CLR
15:51 8.1 °C 2.3 °C 1015.5 hPa NE 24.1 km/h 24.1 km/h 67% 0 mm WeatherDisplay:10.37 W/m2 CLR
15:55 8.1 °C 2.7 °C 1015.5 hPa ENE 22.2 km/h 22.2 km/h 69% 0 mm WeatherDisplay:10.37 W/m2 CLR
16:00 7.9 °C 2.8 °C 1015.5 hPa ENE 29.6 km/h 29.6 km/h 70% 0 mm WeatherDisplay:10.37 W/m2 CLR
16:05 7.7 °C 3 °C 1015.8 hPa ENE 20.4 km/h 20.4 km/h 72% 0 mm WeatherDisplay:10.37 W/m2 CLR
16:10 7.6 °C 2.4 °C 1015.5 hPa ENE 25.9 km/h 25.9 km/h 70% 0 mm WeatherDisplay:10.37 W/m2 CLR
16:15 7.4 °C 2.5 °C 1016.1 hPa NE 18.5 km/h 18.5 km/h 71% 0 mm WeatherDisplay:10.37 W/m2 CLR
16:20 7.5 °C 2.9 °C 1016.1 hPa ENE 20.4 km/h 20.4 km/h 73% 0 mm WeatherDisplay:10.37 W/m2 CLR
16:25 7.4 °C 2.7 °C 1016.1 hPa ENE 22.2 km/h 22.2 km/h 72% 0 mm WeatherDisplay:10.37 W/m2 CLR
16:31 7.3 °C 2.2 °C 1016.5 hPa NE 20.4 km/h 20.4 km/h 70% 0 mm WeatherDisplay:10.37 W/m2 CLR
16:36 7.2 °C 2.1 °C 1016.5 hPa East 20.4 km/h 20.4 km/h 70% 0 mm WeatherDisplay:10.37 W/m2 CLR
16:41 7.2 °C 2.3 °C 1016.5 hPa ENE 31.5 km/h 31.5 km/h 71% 0 mm WeatherDisplay:10.37 W/m2 CLR
16:46 7.2 °C 2.7 °C 1016.5 hPa East 22.2 km/h 22.2 km/h 73% 0 mm WeatherDisplay:10.37 W/m2 CLR
16:51 7.1 °C 2.8 °C 1016.5 hPa East 24.1 km/h 24.1 km/h 74% 0 mm WeatherDisplay:10.37 W/m2 CLR
16:56 7.1 °C 2.9 °C 1016.8 hPa ENE 24.1 km/h 24.1 km/h 75% 0 mm WeatherDisplay:10.37 W/m2 CLR
17:01 7.1 °C 3 °C 1016.8 hPa East 18.5 km/h 18.8 km/h 75% 0 mm WeatherDisplay:10.37 W/m2 CLR
17:06 7.1 °C 3 °C 1016.8 hPa NE 14.8 km/h 14.8 km/h 75% 0 mm WeatherDisplay:10.37 W/m2 CLR
17:11 7.1 °C 2.6 °C 1016.8 hPa ENE 13 km/h 13 km/h 73% 0 mm WeatherDisplay:10.37 W/m2 CLR
17:16 7.1 °C 2.6 °C 1016.8 hPa NE 22.2 km/h 22.2 km/h 73% 0 mm WeatherDisplay:10.37 W/m2 CLR
17:21 7 °C 2.5 °C 1016.8 hPa ENE 24.1 km/h 24.1 km/h 73% 0 mm WeatherDisplay:10.37 W/m2 CLR
17:26 7.1 °C 2.6 °C 1017.2 hPa ENE 24.1 km/h 24.1 km/h 73% 0 mm WeatherDisplay:10.37 W/m2 CLR
17:31 7.1 °C 2.3 °C 1017.2 hPa ENE 20.4 km/h 20.4 km/h 72% 0 mm WeatherDisplay:10.37 W/m2 CLR
17:36 7.2 °C 2.8 °C 1017.2 hPa ENE 16.7 km/h 16.7 km/h 74% 0 mm WeatherDisplay:10.37 W/m2 CLR
17:41 7.2 °C 2.9 °C 1017.2 hPa ENE 14.8 km/h 14.8 km/h 74% 0 mm WeatherDisplay:10.37 W/m2 CLR
17:46 7.2 °C 2.7 °C 1017.5 hPa ENE 16.7 km/h 16.7 km/h 73% 0 mm WeatherDisplay:10.37 W/m2 CLR
17:51 7.1 °C 2.9 °C 1017.5 hPa ENE 18.5 km/h 18.5 km/h 75% 0 mm WeatherDisplay:10.37 W/m2 CLR
17:56 6.9 °C 2.6 °C 1017.5 hPa ENE 20.4 km/h 20.4 km/h 74% 0 mm WeatherDisplay:10.37 W/m2 CLR
18:01 6.8 °C 2.8 °C 1017.5 hPa ENE 16.7 km/h 16.7 km/h 76% 0 mm WeatherDisplay:10.37 W/m2 CLR
18:06 6.9 °C 2.9 °C 1017.5 hPa NE 11.1 km/h 11.1 km/h 76% 0 mm WeatherDisplay:10.37 W/m2 CLR
18:11 6.8 °C 2.7 °C 1017.8 hPa East 16.7 km/h 16.7 km/h 75% 0 mm WeatherDisplay:10.37 W/m2 CLR
18:16 6.7 °C 2.8 °C 1017.8 hPa East 17.7 km/h 17.7 km/h 76% 0 mm WeatherDisplay:10.37 W/m2 CLR
18:21 6.7 °C 2.9 °C 1017.8 hPa East 9.3 km/h 9.3 km/h 77% 0 mm WeatherDisplay:10.37 W/m2 CLR
18:26 6.6 °C 2.9 °C 1017.8 hPa East 14.8 km/h 14.8 km/h 77% 0 mm WeatherDisplay:10.37 W/m2 CLR
18:31 6.5 °C 2.8 °C 1017.8 hPa ENE 18.5 km/h 18.5 km/h 77% 0 mm WeatherDisplay:10.37 W/m2 CLR
18:36 6.3 °C 2.8 °C 1017.8 hPa ENE 16.7 km/h 16.7 km/h 78% 0 mm WeatherDisplay:10.37 W/m2 CLR
18:41 6.3 °C 2.6 °C 1018.5 hPa East 20.4 km/h 20.4 km/h 77% 0 mm WeatherDisplay:10.37 W/m2 CLR
18:46 6.2 °C 2.7 °C 1018.5 hPa East 13 km/h 13 km/h 78% 0 mm WeatherDisplay:10.37 W/m2 CLR
18:51 6.2 °C 2.6 °C 1018.5 hPa East 13 km/h 13 km/h 78% 0 mm WeatherDisplay:10.37 W/m2 CLR
18:56 6.1 °C 2.5 °C 1018.5 hPa ENE 7.4 km/h 7.4 km/h 78% 0 mm WeatherDisplay:10.37 W/m2 CLR
19:01 6 °C 2.4 °C 1018.5 hPa East 13 km/h 13 km/h 78% 0 mm WeatherDisplay:10.37 W/m2 CLR
19:06 6 °C 2.6 °C 1018.5 hPa East 9.7 km/h 9.7 km/h 79% 0 mm WeatherDisplay:10.37 W/m2 CLR
19:11 5.9 °C 2.6 °C 1018.5 hPa ENE 9.3 km/h 9.3 km/h 79% 0 mm WeatherDisplay:10.37 W/m2 CLR
19:16 5.8 °C 2.7 °C 1018.5 hPa ENE 14.8 km/h 14.8 km/h 80% 0 mm WeatherDisplay:10.37 W/m2 CLR
19:21 5.8 °C 2.8 °C 1018.8 hPa ENE 9.3 km/h 9.3 km/h 81% 0 mm WeatherDisplay:10.37 W/m2 CLR
19:26 5.8 °C 2.4 °C 1018.8 hPa ENE 14.8 km/h 14.8 km/h 79% 0 mm WeatherDisplay:10.37 W/m2 CLR
19:31 5.7 °C 2.6 °C 1018.8 hPa East 11.1 km/h 11.1 km/h 80% 0 mm WeatherDisplay:10.37 W/m2 CLR
19:36 5.7 °C 2.7 °C 1018.8 hPa ESE 11.3 km/h 11.3 km/h 81% 0 mm WeatherDisplay:10.37 W/m2 CLR
19:41 5.7 °C 2.5 °C 1019.2 hPa East 11.1 km/h 11.1 km/h 80% 0 mm WeatherDisplay:10.37 W/m2 CLR
19:46 5.7 °C 2.7 °C 1019.2 hPa East 8 km/h 8 km/h 81% 0 mm WeatherDisplay:10.37 W/m2 CLR
19:51 5.6 °C 2.6 °C 1019.2 hPa East 9.3 km/h 9.3 km/h 81% 0 mm WeatherDisplay:10.37 W/m2 CLR
19:56 5.6 °C 2.6 °C 1019.2 hPa East 9.3 km/h 9.3 km/h 81% 0 mm WeatherDisplay:10.37 W/m2 CLR
20:01 5.6 °C 2.7 °C 1019.2 hPa ESE 7.4 km/h 7.4 km/h 82% 0 mm WeatherDisplay:10.37 W/m2 CLR
20:06 5.6 °C 2.7 °C 1019.2 hPa SSE 5.6 km/h 5.6 km/h 82% 0 mm WeatherDisplay:10.37 W/m2 CLR
20:11 5.6 °C 2.7 °C 1019.2 hPa East 5.6 km/h 5.6 km/h 82% 0 mm WeatherDisplay:10.37 W/m2 CLR
20:16 5.6 °C 2.6 °C 1019.5 hPa ENE 8 km/h 8 km/h 81% 0 mm WeatherDisplay:10.37 W/m2 CLR
20:21 5.5 °C 2.5 °C 1019.5 hPa ESE 7.4 km/h 7.4 km/h 81% 0 mm WeatherDisplay:10.37 W/m2 CLR
20:26 5.5 °C 2.7 °C 1019.5 hPa ESE 5.6 km/h 5.6 km/h 82% 0 mm WeatherDisplay:10.37 W/m2 CLR
20:31 5.5 °C 2.7 °C 1019.5 hPa East 5.6 km/h 5.6 km/h 82% 0 mm WeatherDisplay:10.37 W/m2 CLR
20:36 5.5 °C 2.8 °C 1019.9 hPa ESE 6.4 km/h 6.4 km/h 83% 0 mm WeatherDisplay:10.37 W/m2 CLR
20:41 5.5 °C 2.8 °C 1019.9 hPa ESE 5.6 km/h 5.6 km/h 83% 0 mm WeatherDisplay:10.37 W/m2 CLR
20:46 5.5 °C 2.8 °C 1019.9 hPa ESE 6.4 km/h 6.4 km/h 83% 0 mm WeatherDisplay:10.37 W/m2 CLR
20:51 5.4 °C 2.8 °C 1019.9 hPa East 7.4 km/h 7.4 km/h 83% 0 mm WeatherDisplay:10.37 W/m2 CLR
20:57 5.4 °C 2.7 °C 1019.9 hPa East 6.4 km/h 6.4 km/h 83% 0 mm WeatherDisplay:10.37 W/m2 CLR
21:02 5.3 °C 2.8 °C 1019.9 hPa ESE 4.8 km/h 4.8 km/h 84% 0 mm WeatherDisplay:10.37 W/m2 CLR
21:07 5.3 °C 2.7 °C 1020.2 hPa SE 5.6 km/h 5.6 km/h 83% 0 mm WeatherDisplay:10.37 W/m2 CLR
21:12 5.3 °C 2.6 °C 1020.2 hPa ESE 5.6 km/h 5.6 km/h 83% 0 mm WeatherDisplay:10.37 W/m2 CLR
21:17 5.3 °C 2.8 °C 1020.2 hPa SE 5.6 km/h 5.6 km/h 84% 0 mm WeatherDisplay:10.37 W/m2 CLR
21:22 5.3 °C 2.8 °C 1020.2 hPa South 5.6 km/h 5.6 km/h 84% 0 mm WeatherDisplay:10.37 W/m2 CLR
21:27 5.3 °C 2.6 °C 1020.2 hPa SE 11.1 km/h 11.1 km/h 83% 0 mm WeatherDisplay:10.37 W/m2 CLR
21:32 5.2 °C 2.7 °C 1020.5 hPa SSE 8 km/h 8 km/h 84% 0 mm WeatherDisplay:10.37 W/m2 CLR
21:37 5.2 °C 2.6 °C 1020.9 hPa SSE 9.3 km/h 9.3 km/h 83% 0 mm WeatherDisplay:10.37 W/m2 CLR
21:42 5.2 °C 2.6 °C 1020.9 hPa SE 9.3 km/h 9.3 km/h 83% 0 mm WeatherDisplay:10.37 W/m2 CLR
21:47 5.2 °C 2.7 °C 1020.9 hPa SSE 7.4 km/h 7.4 km/h 84% 0 mm WeatherDisplay:10.37 W/m2 CLR
21:52 5.2 °C 2.7 °C 1020.9 hPa SE 6.4 km/h 6.4 km/h 84% 0.25 mm WeatherDisplay:10.37 W/m2 RA
21:57 5.1 °C 2.6 °C 1020.9 hPa SE 8 km/h 8 km/h 84% 0.25 mm WeatherDisplay:10.37 W/m2 RA
22:02 5.1 °C 2.7 °C 1021.6 hPa SE 5.6 km/h 5.6 km/h 85% 0.25 mm WeatherDisplay:10.37 W/m2 CLR
22:07 5.1 °C 2.7 °C 1021.6 hPa SE 6.4 km/h 6.4 km/h 85% 0.25 mm WeatherDisplay:10.37 W/m2 CLR
22:12 5 °C 2.7 °C 1021.6 hPa SSE 6.4 km/h 6.4 km/h 85% 0.25 mm WeatherDisplay:10.37 W/m2 CLR
22:17 5 °C 2.5 °C 1021.6 hPa SSE 9.3 km/h 9.3 km/h 84% 0.25 mm WeatherDisplay:10.37 W/m2 CLR
22:22 4.9 °C 2.6 °C 1021.6 hPa ESE 9.3 km/h 9.3 km/h 85% 0.25 mm WeatherDisplay:10.37 W/m2 CLR
22:27 4.9 °C 2.6 °C 1021.6 hPa SSE 8 km/h 8 km/h 85% 0.25 mm WeatherDisplay:10.37 W/m2 CLR
22:32 4.9 °C 2.6 °C 1021.6 hPa SSE 9.3 km/h 9.3 km/h 85% 0.25 mm WeatherDisplay:10.37 W/m2 CLR
22:37 4.9 °C 2.8 °C 1021.6 hPa SE 8 km/h 8 km/h 86% 0.25 mm WeatherDisplay:10.37 W/m2 CLR
22:42 4.9 °C 2.6 °C 1021.6 hPa SE 9.3 km/h 9.3 km/h 85% 0.25 mm WeatherDisplay:10.37 W/m2 CLR
22:47 4.9 °C 2.4 °C 1021.6 hPa SSE 7.4 km/h 7.4 km/h 84% 0.25 mm WeatherDisplay:10.37 W/m2 CLR
22:52 4.9 °C 2.4 °C 1021.6 hPa SE 11.1 km/h 11.1 km/h 84% 0 mm WeatherDisplay:10.37 W/m2 CLR
22:57 4.8 °C 2.3 °C 1021.6 hPa SSE 5.6 km/h 5.6 km/h 84% 0 mm WeatherDisplay:10.37 W/m2 CLR
23:02 4.8 °C 2.3 °C 1021.6 hPa SSE 7.4 km/h 7.4 km/h 84% 0 mm WeatherDisplay:10.37 W/m2 CLR
23:07 4.7 °C 2.2 °C 1021.6 hPa SSE 7.4 km/h 7.4 km/h 84% 0 mm WeatherDisplay:10.37 W/m2 CLR
23:12 4.7 °C 2.3 °C 1021.6 hPa SSE 11.1 km/h 11.1 km/h 85% 0 mm WeatherDisplay:10.37 W/m2 CLR
23:17 4.7 °C 2.5 °C 1021.6 hPa SSE 6.4 km/h 6.4 km/h 86% 0 mm WeatherDisplay:10.37 W/m2 CLR
23:22 4.6 °C 2.4 °C 1021.6 hPa SE 5.6 km/h 5.6 km/h 86% 0 mm WeatherDisplay:10.37 W/m2 CLR
23:27 4.7 °C 2.5 °C 1021.6 hPa SE 5.6 km/h 5.6 km/h 86% 0 mm WeatherDisplay:10.37 W/m2 CLR
23:32 4.7 °C 2.5 °C 1021.6 hPa SE 5.6 km/h 5.6 km/h 86% 0 mm WeatherDisplay:10.37 W/m2 CLR
23:37 4.7 °C 2.5 °C 1021.6 hPa SE 5.6 km/h 5.6 km/h 86% 0 mm WeatherDisplay:10.37 W/m2 CLR
23:42 4.7 °C 2.5 °C 1021.6 hPa SE 3.7 km/h 3.7 km/h 86% 0 mm WeatherDisplay:10.37 W/m2 CLR
23:47 4.7 °C 2.5 °C 1021.6 hPa SE 7.4 km/h 7.4 km/h 86% 0 mm WeatherDisplay:10.37 W/m2 CLR
23:48 4.7 °C 2.5 °C 1021.6 hPa SE 5.6 km/h 5.6 km/h 86% 0 mm WeatherDisplay:10.37 W/m2 CLR
23:53 4.7 °C 2.7 °C 1021.6 hPa SE 3.7 km/h 3.7 km/h 87% 0 mm WeatherDisplay:10.37 W/m2 CLR
23:58 4.7 °C 2.7 °C 1021.6 hPa SE 3.2 km/h 3.2 km/h 87% 0 mm WeatherDisplay:10.37 W/m2 CLR
Windsor Co Weather
Compliments of Weather Underground - 3 mb